Terminal Aerodrome Forecast
Issued by NWS

Home | Current Version | Previous Version | Text Only | Print | Product List | Glossary On
Versions: 1 2 3 4 5 6 7 8 9 10 11 12 13 14 15
000
FTUS41 KCLE 042323
TAFFDY
TAF
KFDY 042323Z 0500/0524 07005KT 4SM -RASN BR OVC025
      TEMPO 0500/0504 2SM -SN BR OVC006
     FM050400 17006KT 4SM -RASN BR OVC006
     FM050900 25010KT P6SM OVC012
     FM051500 25010KT P6SM OVC025
     FM052000 VRB04KT P6SM SCT250=

USA.gov is the U.S. government's official web portal to all federal, state and local government web resources and services.